Terminal Aerodrome Forecast
Issued by NWS

Home | Current Version | Previous Version | Text Only | Print | Product List | Glossary On
Versions: 1 2 3 4 5 6 7 8 9 10 11 12
941
FTUS45 KVEF 251733
TAFVGT
TAF
KVGT 251733Z 2518/2618 20016G26KT P6SM SKC
     FM252200 23018G27KT P6SM SKC
     FM260700 21011KT P6SM SKC
     FM261300 34013G20KT P6SM FEW120=

USA.gov is the U.S. government's official web portal to all federal, state and local government web resources and services.